Time;durP1;ratioP1;P1;durP2;ratioP2;P2;SDS_P1;SDS_P2;PMS_P1;PMS_P2;Temp;Humidity;BMP_temperature;BMP_pressure;BME280_temperature;BME280_humidity;BME280_pressure;Samples;Min_cycle;Max_cycle;Signal;HPM_P1;HPM_P2
2021/04/19 00:06:13;;;;;;;50.45;21.50;;;;;;;6.93;100.00;100706.23;713750;1178;115213;-79
2021/04/19 00:21:34;;;;;;;37.65;17.65;;;;;;;6.87;100.00;100704.02;713473;1177;114038;-80
2021/04/19 00:36:54;;;;;;;42.90;20.70;;;;;;;6.87;100.00;100690.98;713586;1203;115523;-79
2021/04/19 00:52:14;;;;;;;31.15;16.28;;;;;;;6.85;100.00;100692.84;713501;1206;114201;-79
2021/04/19 01:07:35;;;;;;;23.58;13.80;;;;;;;6.83;100.00;100695.55;717270;1165;115204;-70
2021/04/19 01:22:56;;;;;;;27.90;14.93;;;;;;;6.78;100.00;100689.80;714177;1182;115548;-68
2021/04/19 01:38:20;;;;;;;37.40;17.53;;;;;;;6.55;100.00;100691.32;714565;1204;113873;-70
2021/04/19 01:53:40;;;;;;;23.40;14.00;;;;;;;6.49;100.00;100698.59;714270;1205;113813;-69
2021/04/19 02:09:23;;;;;;;25.80;13.43;;;;;;;6.01;100.00;100718.99;714203;1200;114708;-70
2021/04/19 02:24:47;;;;;;;35.65;17.15;;;;;;;5.98;100.00;100711.38;714148;1177;114276;-69
2021/04/19 02:40:10;;;;;;;25.35;14.38;;;;;;;5.82;100.00;100698.44;714295;1205;114768;-70
2021/04/19 02:55:31;;;;;;;29.98;16.00;;;;;;;5.67;100.00;100708.00;714371;1200;114683;-70
2021/04/19 03:11:10;;;;;;;37.18;17.98;;;;;;;5.64;100.00;100693.41;714337;1203;115387;-70
2021/04/19 03:26:33;;;;;;;41.58;19.73;;;;;;;5.64;100.00;100689.98;714030;1200;114110;-70
2021/04/19 03:41:56;;;;;;;51.60;25.07;;;;;;;5.78;100.00;100686.52;715152;1205;114520;-70
2021/04/19 03:57:20;;;;;;;61.28;24.30;;;;;;;5.78;100.00;100676.95;714312;1200;114774;-70
2021/04/19 04:12:41;;;;;;;44.50;19.45;;;;;;;6.11;100.00;100668.00;714946;1200;113873;-70
2021/04/19 04:28:06;;;;;;;72.65;33.20;;;;;;;6.22;100.00;100666.48;715034;1202;113971;-69
2021/04/19 04:43:29;;;;;;;76.98;36.28;;;;;;;6.26;100.00;100665.36;714342;1202;115603;-69
2021/04/19 04:58:54;;;;;;;103.25;42.20;;;;;;;6.50;100.00;100668.97;714052;1199;115324;-69
2021/04/19 05:14:15;;;;;;;41.68;22.65;;;;;;;6.72;100.00;100664.97;714314;1199;115430;-69
2021/04/19 05:29:37;;;;;;;43.90;21.28;;;;;;;7.21;100.00;100668.69;714961;1200;114185;-69
2021/04/19 05:44:57;;;;;;;37.00;18.95;;;;;;;7.70;100.00;100668.86;714679;1200;115177;-69
2021/04/19 06:00:50;;;;;;;30.28;17.65;;;;;;;8.35;100.00;100656.42;714257;1203;113810;-71
2021/04/19 06:16:12;;;;;;;34.93;18.23;;;;;;;9.01;100.00;100656.78;714346;1200;114853;-71
2021/04/19 06:31:34;;;;;;;41.97;22.23;;;;;;;9.89;100.00;100660.50;714147;1200;113980;-69
2021/04/19 06:47:01;;;;;;;36.63;20.13;;;;;;;10.64;100.00;100666.73;714228;1202;114213;-71
2021/04/19 07:02:26;;;;;;;36.90;19.98;;;;;;;11.17;100.00;100665.02;714364;1200;114168;-70
2021/04/19 07:17:49;;;;;;;33.58;18.35;;;;;;;12.31;100.00;100659.59;714387;1200;114213;-71
2021/04/19 07:33:37;;;;;;;28.53;18.43;;;;;;;13.52;100.00;100659.16;713908;1200;114173;-71
2021/04/19 07:48:57;;;;;;;26.25;17.23;;;;;;;14.80;100.00;100649.40;715781;1200;114299;-71
2021/04/19 08:04:17;;;;;;;26.20;16.03;;;;;;;15.65;100.00;100640.77;714433;1200;114262;-70
2021/04/19 08:19:40;;;;;;;33.13;17.30;;;;;;;17.01;100.00;100644.94;714459;1203;115064;-70
2021/04/19 08:35:02;;;;;;;20.93;13.68;;;;;;;18.58;100.00;100644.14;713930;1202;115961;-71
2021/04/19 08:50:27;;;;;;;24.00;16.45;;;;;;;19.31;98.05;100636.48;714364;1200;115586;-70
2021/04/19 09:05:49;;;;;;;23.48;13.63;;;;;;;19.92;95.03;100636.20;714342;1203;113984;-72
2021/04/19 09:21:49;;;;;;;23.50;13.90;;;;;;;20.82;91.40;100621.66;714177;1193;114158;-74
2021/04/19 09:37:11;;;;;;;11.63;6.93;;;;;;;20.94;72.21;100612.09;714385;1190;113988;-73
2021/04/19 09:52:33;;;;;;;22.03;11.98;;;;;;;21.70;69.18;100607.76;714982;1200;113863;-71
2021/04/19 10:07:54;;;;;;;10.50;6.28;;;;;;;21.96;59.19;100603.49;714436;1203;114877;-72
2021/04/19 10:23:15;;;;;;;9.43;5.90;;;;;;;22.68;55.72;100591.20;714309;1200;113970;-73
2021/04/19 10:38:35;;;;;;;10.48;6.80;;;;;;;22.94;50.27;100581.50;714348;1206;113963;-73
2021/04/19 10:54:02;;;;;;;7.73;4.20;;;;;;;22.96;48.11;100571.39;714549;1200;114184;-73
2021/04/19 11:09:27;;;;;;;8.05;4.05;;;;;;;24.12;45.91;100576.82;714146;1200;113826;-73
2021/04/19 11:24:48;;;;;;;22.67;8.83;;;;;;;24.60;45.64;100561.98;713961;1204;113628;-73
2021/04/19 11:40:26;;;;;;;12.70;7.00;;;;;;;24.36;42.72;100566.31;714148;1200;113874;-76
2021/04/19 11:55:47;;;;;;;11.90;5.40;;;;;;;25.01;45.28;100544.44;713714;1203;113826;-73
2021/04/19 12:11:25;;;;;;;15.20;5.53;;;;;;;25.55;45.07;100528.48;714086;1202;114528;-74
2021/04/19 12:26:45;;;;;;;7.45;3.98;;;;;;;25.62;40.04;100514.14;714056;1200;114604;-74
2021/04/19 12:42:06;;;;;;;10.28;4.30;;;;;;;26.43;42.06;100509.08;713988;1203;113816;-69
2021/04/19 12:57:27;;;;;;;10.07;5.93;;;;;;;24.41;46.00;100494.94;714501;1205;113961;-71
2021/04/19 13:12:47;;;;;;;11.93;6.13;;;;;;;23.15;47.40;100513.55;713996;1205;114707;-73
2021/04/19 13:28:07;;;;;;;10.50;5.93;;;;;;;23.16;47.24;100503.66;714328;1200;113867;-70
2021/04/19 13:43:28;;;;;;;14.08;6.83;;;;;;;22.89;48.62;100509.09;719102;1200;113749;-69
2021/04/19 13:58:49;;;;;;;10.60;6.70;;;;;;;22.48;49.97;100516.39;714199;1205;113707;-70
2021/04/19 14:14:10;;;;;;;15.50;8.03;;;;;;;29.70;45.20;100512.80;713933;1205;113740;-72
2021/04/19 14:29:30;;;;;;;7.33;5.15;;;;;;;32.24;41.18;100519.94;715325;1200;114609;-70
2021/04/19 14:44:51;;;;;;;24.43;19.57;;;;;;;34.51;39.47;100497.47;714681;1200;113338;-72
2021/04/19 15:00:12;;;;;;;14.45;5.18;;;;;;;27.89;42.57;100492.76;713954;1200;114813;-72
2021/04/19 15:15:33;;;;;;;7.43;5.40;;;;;;;31.32;44.19;100499.88;714147;1201;115214;-72
2021/04/19 15:30:55;;;;;;;43.20;31.58;;;;;;;32.21;40.07;100507.73;714146;1203;113753;-73
2021/04/19 15:46:16;;;;;;;11.55;8.90;;;;;;;23.10;45.83;100490.06;713698;1205;114056;-75
2021/04/19 16:01:37;;;;;;;10.70;5.93;;;;;;;20.17;49.83;100492.04;713894;1177;113838;-73
2021/04/19 16:16:57;;;;;;;6.95;4.55;;;;;;;20.21;51.94;100482.64;714107;1205;113941;-71
2021/04/19 16:32:18;;;;;;;9.30;5.10;;;;;;;19.12;53.56;100488.95;714341;1205;114422;-71
2021/04/19 16:47:38;;;;;;;16.68;8.88;;;;;;;18.73;55.60;100509.48;714154;1200;113681;-71
2021/04/19 17:02:59;;;;;;;21.23;12.73;;;;;;;18.53;58.32;100514.53;714098;1206;114318;-71
2021/04/19 17:18:19;;;;;;;34.30;21.95;;;;;;;18.07;61.58;100515.45;714358;1202;114092;-70
2021/04/19 17:33:41;;;;;;;56.03;30.50;;;;;;;17.68;63.66;100526.97;714384;1200;114822;-70
2021/04/19 17:49:02;;;;;;;93.88;59.98;;;;;;;17.32;65.33;100511.62;714978;1174;113987;-70
2021/04/19 18:04:22;;;;;;;40.87;20.33;;;;;;;16.90;66.00;100512.80;714562;1199;114965;-71
2021/04/19 18:19:43;;;;;;;49.30;27.78;;;;;;;16.64;66.63;100516.47;714699;1178;114112;-70
2021/04/19 18:35:04;;;;;;;60.25;29.95;;;;;;;16.34;67.85;100525.95;714677;1180;113960;-70
2021/04/19 18:50:25;;;;;;;142.83;60.33;;;;;;;16.09;70.59;100521.52;714490;1200;114090;-70
2021/04/19 19:05:45;;;;;;;66.88;35.00;;;;;;;15.81;71.92;100531.60;714418;1200;114178;-70
2021/04/19 19:21:07;;;;;;;141.35;69.28;;;;;;;15.54;73.55;100535.31;714649;1203;113997;-73
2021/04/19 19:36:28;;;;;;;78.63;40.73;;;;;;;15.31;74.44;100523.52;714806;1200;114989;-69
2021/04/19 19:51:49;;;;;;;121.88;55.58;;;;;;;15.23;76.13;100520.85;714855;1200;114104;-70
2021/04/19 20:07:09;;;;;;;202.95;90.40;;;;;;;14.86;80.34;100505.33;715436;1200;114188;-70
2021/04/19 20:22:29;;;;;;;109.73;54.17;;;;;;;14.66;81.27;100494.17;715413;1200;114251;-70
2021/04/19 20:37:50;;;;;;;120.20;58.95;;;;;;;14.30;82.67;100482.70;714898;1200;114149;-70
2021/04/19 20:53:11;;;;;;;103.60;53.73;;;;;;;13.92;84.24;100483.91;714300;1205;114207;-70
2021/04/19 21:08:31;;;;;;;98.53;48.30;;;;;;;13.58;85.70;100489.86;713856;1199;114991;-70
2021/04/19 21:23:52;;;;;;;36.30;21.90;;;;;;;13.23;86.85;100486.19;713920;1205;114417;-70
2021/04/19 21:39:12;;;;;;;53.18;27.38;;;;;;;13.07;89.14;100473.66;714179;1204;113985;-70
2021/04/19 21:54:33;;;;;;;62.70;30.68;;;;;;;12.78;90.40;100485.16;714104;1203;113233;-70
2021/04/19 22:09:53;;;;;;;55.73;28.97;;;;;;;12.45;92.56;100489.97;714160;1206;114964;-70
2021/04/19 22:25:18;;;;;;;69.33;32.20;;;;;;;12.21;94.44;100479.92;713867;1205;113995;-70
2021/04/19 22:40:44;;;;;;;74.43;34.07;;;;;;;12.01;94.73;100468.58;713808;1200;114115;-69
2021/04/19 22:56:05;;;;;;;56.50;27.30;;;;;;;11.73;96.24;100469.27;714394;1205;114788;-70
2021/04/19 23:11:25;;;;;;;36.83;22.07;;;;;;;11.46;97.13;100457.63;714287;1200;115928;-70
2021/04/19 23:26:46;;;;;;;33.23;18.77;;;;;;;11.26;98.08;100450.70;714261;1200;114937;-70
2021/04/19 23:42:07;;;;;;;46.50;23.93;;;;;;;11.29;99.40;100442.54;714076;1200;114840;-71
2021/04/19 23:57:27;;;;;;;77.28;36.28;;;;;;;11.17;100.00;100433.13;714186;1200;114237;-70
